Time;durP1;ratioP1;P1;durP2;ratioP2;P2;SDS_P1;SDS_P2;PMS_P1;PMS_P2;Temp;Humidity;BMP_temperature;BMP_pressure;BME280_temperature;BME280_humidity;BME280_pressure;Samples;Min_cycle;Max_cycle;Signal;HPM_P1;HPM_P2
2023/06/18 00:02:25;;;;;;;27.88;23.48;;;;;;;14.07;100.00;63451.94;5086654;28;20200;-75
2023/06/18 00:04:51;;;;;;;25.38;21.48;;;;;;;13.99;100.00;63448.78;5086405;28;20224;-76
2023/06/18 00:07:19;;;;;;;28.02;22.92;;;;;;;14.05;100.00;63447.31;5086236;28;20231;-78
2023/06/18 00:09:45;;;;;;;27.77;21.38;;;;;;;14.05;100.00;63449.88;5083698;28;20489;-77
2023/06/18 00:12:13;;;;;;;26.45;20.88;;;;;;;14.07;100.00;63449.38;5084892;28;20216;-75
2023/06/18 00:14:40;;;;;;;25.42;22.45;;;;;;;14.05;100.00;63449.38;5084841;28;20478;-74
2023/06/18 00:17:07;;;;;;;24.92;21.52;;;;;;;14.05;100.00;63449.38;5086631;28;20242;-76
2023/06/18 00:19:35;;;;;;;27.48;22.63;;;;;;;13.96;100.00;63442.56;5082404;28;20303;-75
2023/06/18 00:22:02;;;;;;;27.52;22.42;;;;;;;14.00;100.00;63446.72;5086215;28;20217;-77
2023/06/18 00:24:29;;;;;;;26.23;21.83;;;;;;;13.99;100.00;63443.13;5086818;28;20200;-77
2023/06/18 00:26:56;;;;;;;26.90;21.02;;;;;;;14.00;100.00;63444.69;5082710;28;20216;-76
2023/06/18 00:29:23;;;;;;;31.13;24.02;;;;;;;13.97;100.00;63439.00;5084738;28;20189;-77
2023/06/18 00:31:50;;;;;;;26.95;22.67;;;;;;;13.98;100.00;63442.09;5087497;28;20216;-76
2023/06/18 00:34:18;;;;;;;29.20;23.30;;;;;;;13.98;100.00;63445.16;5084864;28;20232;-77
2023/06/18 00:36:50;;;;;;;28.98;23.67;;;;;;;14.00;100.00;63444.16;5072509;28;20233;-76
2023/06/18 00:39:18;;;;;;;29.98;23.58;;;;;;;14.05;100.00;63446.81;5068069;28;20220;-77
2023/06/18 00:41:46;;;;;;;31.52;23.48;;;;;;;14.05;100.00;63447.31;5064955;28;20232;-77
2023/06/18 00:44:13;;;;;;;27.88;24.23;;;;;;;14.00;100.00;63444.16;5065295;28;20377;-76
2023/06/18 00:46:46;;;;;;;26.83;22.27;;;;;;;13.99;100.00;63443.13;5065522;28;20248;-77
2023/06/18 00:49:15;;;;;;;30.42;24.88;;;;;;;14.00;100.00;63444.69;5066143;28;20204;-77
2023/06/18 00:51:44;;;;;;;31.92;23.35;;;;;;;14.09;100.00;63456.06;5066102;28;20221;-77
2023/06/18 00:54:15;;;;;;;28.15;23.42;;;;;;;14.06;100.00;63452.94;5069073;28;20433;-76
2023/06/18 00:56:50;;;;;;;31.50;25.58;;;;;;;14.04;100.00;63448.84;5086015;28;20223;-77
2023/06/18 00:59:21;;;;;;;29.83;24.30;;;;;;;14.04;100.00;63451.41;5084296;28;20386;-75
2023/06/18 01:01:48;;;;;;;31.75;25.05;;;;;;;14.09;100.00;63454.03;5080146;28;20242;-76
2023/06/18 01:04:15;;;;;;;30.52;25.15;;;;;;;14.08;100.00;63452.47;5078637;28;20201;-76
2023/06/18 01:06:43;;;;;;;34.17;24.77;;;;;;;14.00;100.00;63444.69;5082553;28;20393;-75
2023/06/18 01:09:17;;;;;;;30.90;25.90;;;;;;;14.05;100.00;63447.31;5072430;28;20439;-75
2023/06/18 01:11:45;;;;;;;34.08;25.60;;;;;;;14.00;100.00;63449.28;5081552;28;20436;-77
2023/06/18 01:14:14;;;;;;;33.17;26.25;;;;;;;14.00;100.00;63444.16;5065457;28;20233;-76
2023/06/18 01:16:46;;;;;;;32.33;26.63;;;;;;;13.98;100.00;63442.59;5069038;28;20285;-77
2023/06/18 01:19:27;;;;;;;34.03;27.50;;;;;;;13.96;100.00;63440.53;5084652;28;20193;-77
2023/06/18 01:22:01;;;;;;;28.55;23.95;;;;;;;13.93;100.00;63437.41;5075049;28;20220;-77
2023/06/18 01:24:33;;;;;;;34.08;26.85;;;;;;;13.99;100.00;63441.09;5064207;28;20199;-76
2023/06/18 01:27:02;;;;;;;36.50;27.52;;;;;;;13.98;100.00;63445.16;5082427;28;20219;-76
2023/06/18 01:29:34;;;;;;;31.80;25.35;;;;;;;13.98;100.00;63442.09;5086449;28;20200;-77
2023/06/18 01:32:00;;;;;;;34.85;26.25;;;;;;;14.03;100.00;63447.78;5064939;28;20299;-76
2023/06/18 01:34:29;;;;;;;34.90;28.10;;;;;;;13.93;100.00;63434.84;5069233;28;20284;-76
2023/06/18 01:37:05;;;;;;;33.08;26.45;;;;;;;13.98;100.00;63442.59;5064161;28;20227;-77
2023/06/18 01:39:40;;;;;;;36.05;27.10;;;;;;;14.03;100.00;63445.22;5063835;28;20200;-76
2023/06/18 01:42:14;;;;;;;36.95;28.00;;;;;;;14.04;100.00;63448.84;5066849;28;20216;-76
2023/06/18 01:44:45;;;;;;;34.53;26.08;;;;;;;14.06;100.00;63453.47;5064209;28;20393;-77
2023/06/18 01:47:15;;;;;;;38.70;28.85;;;;;;;14.08;100.00;63449.91;5067736;28;20211;-77
2023/06/18 01:49:44;;;;;;;35.22;29.20;;;;;;;14.06;100.00;63448.34;5063847;28;20205;-78
2023/06/18 01:52:15;;;;;;;35.80;27.63;;;;;;;14.07;100.00;63451.94;5064080;28;20388;-77
2023/06/18 01:54:47;;;;;;;43.38;30.38;;;;;;;14.09;100.00;63448.91;5065938;28;20229;-77
2023/06/18 01:57:15;;;;;;;35.75;29.45;;;;;;;13.99;100.00;63443.13;5066923;28;20224;-76
2023/06/18 01:59:43;;;;;;;33.88;27.45;;;;;;;14.02;100.00;63443.69;5084235;28;20192;-75
2023/06/18 02:02:10;;;;;;;36.75;29.05;;;;;;;14.10;100.00;63452.50;5085799;28;20414;-77
2023/06/18 02:04:37;;;;;;;39.67;28.80;;;;;;;14.12;100.00;63454.56;5084246;28;20521;-76
2023/06/18 02:07:05;;;;;;;39.05;29.00;;;;;;;14.13;100.00;63449.97;5072965;28;20418;-75
2023/06/18 02:09:31;;;;;;;33.63;27.15;;;;;;;14.11;100.00;63450.97;5072687;28;20418;-77
2023/06/18 02:12:00;;;;;;;37.72;28.67;;;;;;;14.08;100.00;63455.03;5084195;28;20292;-76
2023/06/18 02:14:27;;;;;;;37.15;27.98;;;;;;;14.08;100.00;63452.47;5086231;28;20228;-77
2023/06/18 02:16:55;;;;;;;37.55;26.77;;;;;;;14.08;100.00;63450.41;5076990;28;20221;-78
2023/06/18 02:19:22;;;;;;;35.80;27.95;;;;;;;14.01;100.00;63445.19;5069833;28;20224;-76
2023/06/18 02:21:49;;;;;;;36.25;28.80;;;;;;;14.04;100.00;63448.31;5068729;28;20256;-76
2023/06/18 02:24:16;;;;;;;36.80;27.67;;;;;;;14.11;100.00;63450.97;5067224;28;20231;-78
2023/06/18 02:26:43;;;;;;;37.17;28.75;;;;;;;14.14;100.00;63458.69;5084077;28;20220;-78
2023/06/18 02:29:12;;;;;;;36.35;28.40;;;;;;;14.16;100.00;63460.78;5089551;28;20196;-75
2023/06/18 02:31:40;;;;;;;31.60;25.90;;;;;;;14.12;100.00;63456.59;5092144;28;20469;-76
2023/06/18 02:34:07;;;;;;;35.75;26.50;;;;;;;14.18;100.00;63457.72;5077180;28;20208;-77
2023/06/18 02:36:37;;;;;;;36.30;28.15;;;;;;;14.17;100.00;63464.38;5079118;28;20224;-77
2023/06/18 02:39:04;;;;;;;37.58;28.08;;;;;;;14.11;100.00;63455.59;5086871;28;20229;-76
2023/06/18 02:41:31;;;;;;;33.65;27.98;;;;;;;14.16;100.00;63458.75;5089722;28;20231;-76
2023/06/18 02:43:58;;;;;;;34.15;27.00;;;;;;;14.17;100.00;63459.75;5088563;28;20211;-76
2023/06/18 02:46:26;;;;;;;35.67;28.17;;;;;;;14.21;100.00;63463.41;5089938;28;20220;-78
2023/06/18 02:48:53;;;;;;;33.97;26.38;;;;;;;14.23;100.00;63466.00;5088515;28;20193;-77
2023/06/18 02:51:20;;;;;;;32.78;26.15;;;;;;;14.15;100.00;63460.25;5082412;28;20220;-77
2023/06/18 02:53:47;;;;;;;33.35;26.13;;;;;;;14.19;100.00;63466.44;5067297;28;20212;-77
2023/06/18 02:56:14;;;;;;;33.17;26.65;;;;;;;14.20;100.00;63464.94;5085538;28;20228;-75
2023/06/18 02:58:41;;;;;;;35.20;27.08;;;;;;;14.23;100.00;63466.00;5093060;28;20237;-76
2023/06/18 03:01:08;;;;;;;33.97;26.77;;;;;;;14.23;100.00;63471.13;5076435;28;20286;-76
2023/06/18 03:03:37;;;;;;;32.63;26.45;;;;;;;14.19;100.00;63461.84;5068476;28;20251;-76
2023/06/18 03:06:05;;;;;;;30.88;26.13;;;;;;;14.18;100.00;63462.84;5066854;28;20433;-77
2023/06/18 03:08:31;;;;;;;34.70;27.23;;;;;;;14.23;100.00;63468.56;5067839;28;20440;-77
2023/06/18 03:10:58;;;;;;;30.75;25.83;;;;;;;14.24;100.00;63469.59;5085505;28;20241;-77
2023/06/18 03:13:26;;;;;;;32.15;25.80;;;;;;;14.24;100.00;63469.59;5090901;28;20287;-77
2023/06/18 03:15:53;;;;;;;33.60;25.27;;;;;;;14.24;100.00;63463.94;5088758;28;20244;-78
2023/06/18 03:18:20;;;;;;;31.98;25.15;;;;;;;14.28;100.00;63475.81;5084969;28;20514;-77
2023/06/18 03:20:49;;;;;;;32.95;26.70;;;;;;;14.29;100.00;63469.19;5086790;28;20216;-76
2023/06/18 03:23:16;;;;;;;33.63;27.05;;;;;;;14.27;100.00;63472.72;5086621;28;20197;-76
2023/06/18 03:25:43;;;;;;;33.38;26.92;;;;;;;14.32;100.00;63474.84;5088920;28;20400;-76
2023/06/18 03:28:10;;;;;;;31.08;25.48;;;;;;;14.19;100.00;63461.31;5077319;28;20197;-75
2023/06/18 03:30:38;;;;;;;31.30;24.70;;;;;;;14.35;100.00;63478.47;5065931;28;20233;-77
2023/06/18 03:33:06;;;;;;;32.30;25.75;;;;;;;14.31;100.00;63474.31;5066951;28;20193;-76
2023/06/18 03:35:33;;;;;;;30.55;25.33;;;;;;;14.35;100.00;63478.47;5066653;28;20237;-76
2023/06/18 03:38:01;;;;;;;33.47;25.60;;;;;;;14.17;100.00;63459.25;5068019;28;20217;-77
2023/06/18 03:40:29;;;;;;;33.80;26.55;;;;;;;14.38;100.00;63484.16;5068159;28;20363;-75
2023/06/18 03:42:56;;;;;;;30.42;24.95;;;;;;;14.40;100.00;63483.69;5067304;28;20220;-77
2023/06/18 03:45:23;;;;;;;31.30;25.85;;;;;;;14.49;100.00;63493.03;5065055;28;20252;-75
2023/06/18 03:47:50;;;;;;;32.42;25.48;;;;;;;14.44;100.00;63487.84;5066112;28;20208;-76
2023/06/18 03:50:17;;;;;;;31.60;25.85;;;;;;;14.50;100.00;63494.06;5065819;28;20233;-78
2023/06/18 03:52:45;;;;;;;34.40;25.77;;;;;;;14.49;100.00;63492.50;5067108;28;20227;-77
2023/06/18 03:55:15;;;;;;;30.65;25.48;;;;;;;14.52;100.00;63495.63;5074190;28;20240;-77
2023/06/18 03:57:42;;;;;;;32.00;26.17;;;;;;;14.55;100.00;63504.38;5086299;28;20184;-75
2023/06/18 04:00:10;;;;;;;30.58;24.60;;;;;;;14.56;100.00;63500.31;5085283;28;20208;-76
2023/06/18 04:02:38;;;;;;;36.17;26.65;;;;;;;14.55;100.00;63501.28;5085795;28;20193;-77
2023/06/18 04:05:05;;;;;;;31.00;24.35;;;;;;;14.60;100.00;63504.44;5070395;28;20251;-75
2023/06/18 04:07:32;;;;;;;33.05;25.60;;;;;;;14.62;100.00;63503.44;5068080;28;20193;-77
2023/06/18 04:09:59;;;;;;;33.25;25.92;;;;;;;14.63;100.00;63510.13;5080286;28;20242;-77
2023/06/18 04:12:28;;;;;;;28.73;22.95;;;;;;;14.63;100.00;63512.69;5082415;28;20210;-77
2023/06/18 04:14:55;;;;;;;30.40;24.70;;;;;;;14.77;100.00;63519.03;5085660;28;20200;-75
2023/06/18 04:17:22;;;;;;;28.80;25.13;;;;;;;14.82;100.00;63527.28;5085762;28;20207;-75
2023/06/18 04:19:49;;;;;;;30.60;25.27;;;;;;;14.82;100.00;63529.84;5087197;28;20204;-77
2023/06/18 04:22:15;;;;;;;29.40;24.13;;;;;;;14.83;100.00;63530.91;5083043;28;20277;-76
2023/06/18 04:24:42;;;;;;;28.33;24.13;;;;;;;14.86;100.00;63534.00;5087341;28;20246;-76
2023/06/18 04:27:11;;;;;;;28.75;22.80;;;;;;;14.90;100.00;63538.19;5074609;28;20437;-76
2023/06/18 04:29:40;;;;;;;26.92;23.00;;;;;;;14.99;100.00;63542.41;5065225;28;20216;-76
2023/06/18 04:32:08;;;;;;;26.88;23.23;;;;;;;14.96;100.00;63543.91;5064635;28;20252;-75
2023/06/18 04:34:35;;;;;;;26.88;23.20;;;;;;;15.02;100.00;63552.69;5066030;28;20283;-77
2023/06/18 04:37:02;;;;;;;30.90;23.67;;;;;;;15.07;100.00;63552.75;5064809;28;20391;-76
2023/06/18 04:39:29;;;;;;;27.38;23.05;;;;;;;15.10;100.00;63555.84;5067710;28;20251;-76
2023/06/18 04:41:56;;;;;;;26.27;23.05;;;;;;;15.10;100.00;63555.84;5063785;28;20219;-75
2023/06/18 04:44:25;;;;;;;26.55;21.73;;;;;;;14.98;100.00;63543.91;5065331;28;20201;-75
2023/06/18 04:46:53;;;;;;;26.23;21.77;;;;;;;15.23;100.00;63569.38;5068109;28;20209;-76
2023/06/18 04:49:21;;;;;;;27.48;21.77;;;;;;;15.26;100.00;63571.97;5064711;28;20260;-75
2023/06/18 04:51:47;;;;;;;23.35;20.30;;;;;;;15.30;100.00;63581.78;5083316;28;20410;-74
2023/06/18 04:54:15;;;;;;;22.33;19.95;;;;;;;15.32;100.00;63578.75;5084806;28;20198;-76
2023/06/18 04:56:42;;;;;;;24.80;20.05;;;;;;;15.38;100.00;63587.00;5084905;28;20240;-75
2023/06/18 04:59:09;;;;;;;23.50;20.30;;;;;;;15.41;100.00;63590.16;5082402;28;20238;-77
2023/06/18 05:01:35;;;;;;;26.23;20.17;;;;;;;15.36;100.00;63588.00;5088070;28;20231;-75
2023/06/18 05:04:04;;;;;;;22.50;19.98;;;;;;;15.42;100.00;63591.72;5084220;28;20485;-75
2023/06/18 05:06:31;;;;;;;24.05;19.40;;;;;;;15.43;100.00;63592.75;5085652;28;20224;-74
2023/06/18 05:08:58;;;;;;;24.05;20.20;;;;;;;15.46;100.00;63592.78;5076180;28;20202;-76
2023/06/18 05:11:25;;;;;;;23.00;19.20;;;;;;;15.51;100.00;63597.97;5083893;28;20297;-74
2023/06/18 05:13:52;;;;;;;20.80;18.55;;;;;;;15.56;100.00;63601.13;5088695;28;20197;-76
2023/06/18 05:16:19;;;;;;;20.65;18.50;;;;;;;15.61;100.00;63610.94;5083694;28;20231;-76
2023/06/18 05:18:46;;;;;;;21.88;18.70;;;;;;;15.47;100.00;63591.78;5064428;28;20295;-76
2023/06/18 05:21:15;;;;;;;20.35;16.90;;;;;;;15.39;100.00;63593.19;5065659;28;20244;-74
2023/06/18 05:23:43;;;;;;;20.90;18.13;;;;;;;15.35;100.00;63581.31;5064836;28;20204;-76
2023/06/18 05:26:10;;;;;;;22.27;19.92;;;;;;;15.29;100.00;63578.16;5064248;28;20263;-76
2023/06/18 05:28:37;;;;;;;21.38;18.98;;;;;;;15.24;100.00;63575.03;5066609;28;20268;-73
2023/06/18 05:31:04;;;;;;;21.20;18.92;;;;;;;15.26;100.00;63571.97;5064249;28;20451;-73
2023/06/18 05:33:31;;;;;;;23.40;18.38;;;;;;;15.30;100.00;63581.78;5063394;28;20441;-75
2023/06/18 05:35:58;;;;;;;21.42;19.13;;;;;;;15.40;100.00;63586.53;5064137;28;20236;-73
2023/06/18 05:38:26;;;;;;;23.45;19.75;;;;;;;15.22;100.00;63567.81;5064627;28;20215;-75
2023/06/18 05:40:53;;;;;;;20.67;18.25;;;;;;;15.24;100.00;63572.47;5065372;28;20213;-74
2023/06/18 05:43:21;;;;;;;24.80;18.65;;;;;;;15.25;100.00;63573.50;5063526;28;20217;-73
2023/06/18 05:45:48;;;;;;;21.77;19.25;;;;;;;15.27;100.00;63576.09;5063943;28;20219;-74
2023/06/18 05:48:15;;;;;;;21.33;18.10;;;;;;;15.25;100.00;63576.59;5063572;28;20193;-73
2023/06/18 05:50:42;;;;;;;21.42;19.15;;;;;;;15.24;100.00;63572.47;5067929;28;20286;-75
2023/06/18 05:53:10;;;;;;;24.45;19.83;;;;;;;15.23;100.00;63571.41;5071468;28;20496;-75
2023/06/18 05:55:38;;;;;;;20.83;18.60;;;;;;;15.24;100.00;63567.34;5092016;28;20434;-75
2023/06/18 05:58:05;;;;;;;22.27;19.88;;;;;;;15.15;100.00;63560.56;5088710;28;20225;-73
2023/06/18 06:00:32;;;;;;;22.85;18.95;;;;;;;15.12;100.00;63560.00;5088872;28;20223;-74
2023/06/18 06:02:59;;;;;;;23.08;19.00;;;;;;;15.12;100.00;63557.94;5075430;28;20441;-74
2023/06/18 06:05:26;;;;;;;22.23;19.80;;;;;;;15.20;100.00;63571.41;5067858;28;20209;-74
2023/06/18 06:07:53;;;;;;;22.77;19.55;;;;;;;15.23;100.00;63566.28;5071032;28;20384;-75
2023/06/18 06:10:21;;;;;;;26.75;18.85;;;;;;;15.24;100.00;63575.53;5082505;28;20250;-73
2023/06/18 06:12:50;;;;;;;22.45;19.75;;;;;;;15.34;100.00;63580.28;5084733;28;20200;-75
2023/06/18 06:15:17;;;;;;;27.88;20.17;;;;;;;15.32;100.00;63578.22;5087513;28;20279;-75
2023/06/18 06:17:45;;;;;;;22.50;19.05;;;;;;;15.39;100.00;63588.06;5087185;28;20196;-75
2023/06/18 06:20:12;;;;;;;22.30;17.75;;;;;;;15.35;100.00;63583.88;5085366;28;20217;-74
2023/06/18 06:22:40;;;;;;;20.98;18.48;;;;;;;15.44;100.00;63590.72;5088453;28;20204;-74
2023/06/18 06:25:07;;;;;;;20.52;18.42;;;;;;;15.19;100.00;63562.13;5086355;28;20539;-75
2023/06/18 06:27:34;;;;;;;22.05;19.55;;;;;;;15.48;100.00;63597.44;5087368;28;20242;-75
2023/06/18 06:30:03;;;;;;;20.83;18.75;;;;;;;15.53;100.00;63605.19;5075861;28;20232;-75
2023/06/18 06:32:30;;;;;;;22.20;18.02;;;;;;;15.66;100.00;63608.44;5066144;28;20243;-74
2023/06/18 06:34:57;;;;;;;20.73;18.55;;;;;;;15.60;100.00;63607.34;5068953;28;20216;-75
2023/06/18 06:37:24;;;;;;;22.63;19.90;;;;;;;15.73;100.00;63620.84;5067384;28;20232;-73
2023/06/18 06:39:51;;;;;;;23.10;19.48;;;;;;;15.59;100.00;63606.81;5081217;28;20272;-75
2023/06/18 06:42:18;;;;;;;22.85;18.27;;;;;;;15.79;100.00;63627.59;5086891;28;20212;-76
2023/06/18 06:44:45;;;;;;;22.08;18.90;;;;;;;15.91;100.00;63642.66;5088047;28;20196;-76
2023/06/18 06:47:16;;;;;;;21.33;18.20;;;;;;;15.82;100.00;63635.88;5083380;28;20222;-75
2023/06/18 06:49:45;;;;;;;22.55;19.33;;;;;;;16.16;100.00;63663.53;5068801;28;20203;-75
2023/06/18 06:52:11;;;;;;;19.80;17.63;;;;;;;16.24;100.00;63671.31;5066900;28;20212;-75
2023/06/18 06:54:39;;;;;;;20.88;17.17;;;;;;;16.22;100.00;63674.38;5066156;28;20205;-75
2023/06/18 06:57:06;;;;;;;19.27;17.38;;;;;;;16.27;100.00;63679.06;5073626;28;20235;-75
2023/06/18 06:59:33;;;;;;;21.58;17.75;;;;;;;16.36;100.00;63685.84;5086568;28;20196;-76
2023/06/18 07:02:00;;;;;;;22.05;17.38;;;;;;;16.49;100.00;63701.97;5085698;28;20219;-74
2023/06/18 07:04:29;;;;;;;19.30;17.02;;;;;;;16.51;100.00;63701.47;5087432;28;20215;-74
2023/06/18 07:06:56;;;;;;;23.00;17.30;;;;;;;16.51;100.00;63701.47;5084296;28;20539;-75
2023/06/18 07:09:23;;;;;;;19.77;17.63;;;;;;;16.54;100.00;63704.59;5085878;28;20227;-73
2023/06/18 07:11:50;;;;;;;19.15;17.10;;;;;;;16.52;100.00;63705.06;5086861;28;20421;-75
2023/06/18 07:14:17;;;;;;;20.05;16.30;;;;;;;16.63;100.00;63717.06;5083933;28;20215;-74
2023/06/18 07:16:45;;;;;;;18.52;15.25;;;;;;;16.55;100.00;63706.13;5086843;28;20555;-76
2023/06/18 07:19:12;;;;;;;17.85;16.00;;;;;;;16.40;100.00;63690.00;5088143;28;20200;-76
2023/06/18 07:21:40;;;;;;;18.95;16.95;;;;;;;16.46;100.00;63696.78;5086848;28;20554;-74
2023/06/18 07:24:08;;;;;;;19.20;16.38;;;;;;;16.48;100.00;63701.44;5076682;28;20246;-74
2023/06/18 07:26:35;;;;;;;16.77;15.07;;;;;;;16.48;100.00;63696.28;5066737;28;20289;-75
2023/06/18 07:29:02;;;;;;;17.65;15.77;;;;;;;16.48;100.00;63701.44;5066139;28;20232;-74
2023/06/18 07:31:29;;;;;;;18.02;16.13;;;;;;;16.51;100.00;63704.03;5066997;28;20220;-75
2023/06/18 07:33:56;;;;;;;17.75;15.25;;;;;;;16.49;100.00;63699.38;5078118;28;20341;-76
2023/06/18 07:36:23;;;;;;;17.23;15.00;;;;;;;16.55;100.00;63706.13;5085806;28;20266;-76
2023/06/18 07:38:52;;;;;;;17.90;16.05;;;;;;;16.56;100.00;63707.19;5082691;28;20216;-76
2023/06/18 07:41:19;;;;;;;20.05;16.50;;;;;;;16.57;100.00;63705.13;5065527;28;20217;-75
2023/06/18 07:43:46;;;;;;;18.30;16.33;;;;;;;16.61;100.00;63720.09;5067240;28;20200;-74
2023/06/18 07:46:13;;;;;;;17.35;15.50;;;;;;;16.55;100.00;63711.28;5067363;28;20270;-76
2023/06/18 07:48:40;;;;;;;19.42;16.13;;;;;;;16.47;100.00;63697.81;5073486;28;20228;-75
2023/06/18 07:51:07;;;;;;;20.17;16.45;;;;;;;16.44;100.00;63694.16;5086966;28;20528;-76
2023/06/18 07:53:34;;;;;;;16.92;15.02;;;;;;;16.42;100.00;63692.59;5085256;28;20242;-74
2023/06/18 07:56:03;;;;;;;19.02;15.45;;;;;;;16.45;100.00;63692.63;5086042;28;20227;-77
2023/06/18 07:58:29;;;;;;;18.70;16.77;;;;;;;16.54;100.00;63710.25;5084556;28;20237;-77
2023/06/18 08:00:57;;;;;;;18.88;15.48;;;;;;;16.63;100.00;63714.47;5085612;28;20212;-76
2023/06/18 08:03:24;;;;;;;19.02;15.88;;;;;;;16.70;100.00;63724.34;5085080;28;20233;-75
2023/06/18 08:05:51;;;;;;;17.95;16.15;;;;;;;16.86;100.00;63738.41;5083825;28;20258;-74
2023/06/18 08:08:18;;;;;;;18.95;16.13;;;;;;;17.01;100.00;63753.50;5086039;28;20200;-75
2023/06/18 08:10:45;;;;;;;16.48;14.73;;;;;;;17.12;100.00;63765.47;5085539;28;20212;-76
2023/06/18 08:13:13;;;;;;;20.40;14.80;;;;;;;17.18;100.00;63771.19;5086877;28;20258;-74
2023/06/18 08:15:40;;;;;;;19.38;14.50;;;;;;;17.20;100.00;63773.78;5075326;28;20224;-73
2023/06/18 08:18:08;;;;;;;19.90;15.18;;;;;;;17.35;100.00;63791.47;5065044;28;20235;-74
2023/06/18 08:20:36;;;;;;;16.27;13.90;;;;;;;17.43;100.00;63799.28;5065131;28;20559;-74
2023/06/18 08:23:03;;;;;;;15.30;13.73;;;;;;;17.51;100.00;63808.16;5065181;28;20260;-74
2023/06/18 08:25:29;;;;;;;15.73;14.18;;;;;;;17.50;100.00;63804.00;5078711;28;20224;-74
2023/06/18 08:27:58;;;;;;;16.50;14.77;;;;;;;17.38;100.00;63792.00;5085443;28;20415;-75
2023/06/18 08:30:27;;;;;;;16.55;14.90;;;;;;;17.32;100.00;63785.75;5084328;28;20227;-74
2023/06/18 08:32:55;;;;;;;19.00;13.80;;;;;;;17.32;100.00;63790.91;5082994;28;20193;-75
2023/06/18 08:35:23;;;;;;;15.90;13.70;;;;;;;17.39;100.00;63787.91;5085111;28;20216;-75
2023/06/18 08:37:50;;;;;;;16.50;13.48;;;;;;;17.47;100.00;63803.97;5084859;28;20461;-76
2023/06/18 08:40:19;;;;;;;16.77;15.05;;;;;;;17.60;100.00;63819.56;5089482;28;20219;-75
2023/06/18 08:42:46;;;;;;;15.45;13.82;;;;;;;17.68;100.00;63823.28;5075698;28;20207;-74
2023/06/18 08:45:14;;;;;;;15.98;13.63;;;;;;;17.80;100.00;63840.91;5064755;28;20230;-76
2023/06/18 08:47:48;;;;;;;14.90;13.40;;;;;;;17.82;100.00;63837.31;5064808;28;20411;-74
2023/06/18 08:50:19;;;;;;;14.85;12.57;;;;;;;17.97;100.00;63858.09;5064914;28;20203;-75
2023/06/18 08:52:51;;;;;;;13.68;12.23;;;;;;;17.99;100.00;63858.13;5064798;28;20259;-75
2023/06/18 08:55:20;;;;;;;13.65;12.35;;;;;;;18.08;100.00;63870.09;5066216;28;20230;-74
2023/06/18 08:57:56;;;;;;;14.00;12.68;;;;;;;18.16;100.00;63867.56;5065018;28;20257;-75
2023/06/18 09:00:23;;;;;;;14.20;12.00;;;;;;;18.07;100.00;63863.88;5067575;28;20219;-76
2023/06/18 09:02:53;;;;;;;14.40;12.88;;;;;;;17.55;100.00;63811.78;5085077;28;20234;-77
2023/06/18 09:05:21;;;;;;;13.25;11.98;;;;;;;17.51;100.00;63808.16;5084943;28;20269;-75
2023/06/18 09:07:47;;;;;;;13.50;12.25;;;;;;;17.77;100.00;63832.13;5085651;28;20196;-76
2023/06/18 09:10:16;;;;;;;12.98;11.75;;;;;;;17.91;100.00;63847.22;5081425;28;20200;-76
2023/06/18 09:12:42;;;;;;;15.27;12.85;;;;;;;18.05;100.00;63861.28;5085129;28;20368;-75
2023/06/18 09:15:10;;;;;;;15.90;11.63;;;;;;;18.30;100.00;63885.28;5084719;28;20409;-75
2023/06/18 09:17:39;;;;;;;15.23;13.05;;;;;;;18.13;100.00;63867.56;5085442;28;20224;-74
2023/06/18 09:20:13;;;;;;;13.88;12.50;;;;;;;18.28;100.00;63885.22;5082344;28;20231;-75
2023/06/18 09:22:45;;;;;;;12.68;11.40;;;;;;;18.47;100.00;63904.53;5086347;28;20184;-74
2023/06/18 09:25:18;;;;;;;14.48;11.93;;;;;;;18.29;100.00;63891.44;5086002;28;20242;-76
2023/06/18 09:27:45;;;;;;;10.93;9.93;;;;;;;18.11;100.00;63868.06;5082786;28;20282;-77
2023/06/18 09:30:19;;;;;;;12.85;11.60;;;;;;;18.08;100.00;63870.09;5076699;28;20255;-74
2023/06/18 09:32:47;;;;;;;13.60;11.75;;;;;;;18.13;100.00;63877.34;5077560;28;20278;-76
2023/06/18 09:35:17;;;;;;;13.07;11.60;;;;;;;18.24;100.00;63878.50;5085657;28;20216;-75
2023/06/18 09:37:45;;;;;;;11.80;10.57;;;;;;;17.86;100.00;63839.44;5070454;28;20232;-74
2023/06/18 09:40:16;;;;;;;12.75;11.55;;;;;;;18.01;100.00;63862.78;5086999;28;20204;-79
2023/06/18 09:42:44;;;;;;;13.15;11.70;;;;;;;18.23;100.00;63883.13;5085051;28;20184;-77
2023/06/18 09:45:12;;;;;;;12.50;11.40;;;;;;;18.24;100.00;63886.75;5083167;28;20196;-76
2023/06/18 09:47:41;;;;;;;11.50;10.43;;;;;;;18.40;100.00;63898.28;5064523;28;20246;-77
2023/06/18 09:50:10;;;;;;;11.98;10.77;;;;;;;18.01;100.00;63855.06;5064497;28;20200;-76
2023/06/18 09:52:45;;;;;;;11.38;10.27;;;;;;;18.11;100.00;63872.69;5065526;28;20197;-74
2023/06/18 09:55:37;;;;;;;11.05;10.05;;;;;;;18.35;100.00;63892.53;5075269;28;20200;-76
2023/06/18 09:58:04;;;;;;;10.82;9.82;;;;;;;18.38;100.00;63901.34;5064157;28;20544;-75
2023/06/18 10:00:31;;;;;;;11.10;10.10;;;;;;;18.53;100.00;63911.31;5084866;28;20480;-74
2023/06/18 10:03:06;;;;;;;11.50;10.35;;;;;;;18.43;100.00;63903.97;5084030;28;20218;-74
2023/06/18 10:05:34;;;;;;;12.13;10.93;;;;;;;18.34;100.00;63894.06;5081294;28;20219;-77
2023/06/18 10:08:03;;;;;;;11.55;10.45;;;;;;;18.29;100.00;63883.72;5088140;28;20218;-77
2023/06/18 10:10:32;;;;;;;11.35;10.18;;;;;;;18.35;100.00;63895.09;5067892;28;20217;-78
2023/06/18 10:13:04;;;;;;;13.52;10.25;;;;;;;18.52;100.00;63910.25;5068394;28;20257;-72
2023/06/18 10:15:31;;;;;;;9.35;8.45;;;;;;;18.70;100.00;63931.09;5084138;28;20416;-77
2023/06/18 10:18:00;;;;;;;11.10;9.68;;;;;;;18.83;100.00;63944.63;5085153;28;20236;-74
2023/06/18 10:20:28;;;;;;;10.25;9.35;;;;;;;18.90;100.00;63951.91;5086555;28;20438;-75
2023/06/18 10:22:58;;;;;;;10.13;9.23;;;;;;;18.76;100.00;63934.75;5081355;28;20434;-74
2023/06/18 10:25:28;;;;;;;10.05;9.05;;;;;;;18.92;100.00;63956.59;5083378;28;20219;-75
2023/06/18 10:27:58;;;;;;;10.05;8.90;;;;;;;19.14;100.00;63976.94;5083943;28;20501;-75
2023/06/18 10:30:26;;;;;;;10.63;9.52;;;;;;;19.25;100.00;63988.41;5082406;28;20235;-74
2023/06/18 10:32:55;;;;;;;9.93;8.95;;;;;;;19.15;100.00;63978.53;5064485;28;20205;-74
2023/06/18 10:35:22;;;;;;;10.35;9.35;;;;;;;19.35;100.00;63993.69;5063941;28;20217;-76
2023/06/18 10:37:50;;;;;;;9.50;8.52;;;;;;;19.46;100.00;64007.75;5067523;28;20228;-73
2023/06/18 10:40:17;;;;;;;8.52;7.82;;;;;;;19.71;100.00;64033.81;5066457;28;20346;-75
2023/06/18 10:42:48;;;;;;;7.75;7.25;;;;;;;19.65;100.00;64027.56;5066884;28;20320;-74
2023/06/18 10:45:17;;;;;;;8.80;8.02;;;;;;;19.34;100.00;63992.66;5069718;28;20239;-74
2023/06/18 10:47:45;;;;;;;9.65;8.85;;;;;;;19.32;100.00;63993.16;5067199;28;20195;-76
2023/06/18 10:50:18;;;;;;;9.30;8.40;;;;;;;19.44;100.00;64008.78;5080981;28;20203;-74
2023/06/18 10:52:48;;;;;;;8.38;7.68;;;;;;;19.46;100.00;64010.34;5087955;28;20193;-75
2023/06/18 10:55:27;;;;;;;9.07;8.18;;;;;;;19.39;100.00;64003.56;5086340;28;20466;-75
2023/06/18 10:58:01;;;;;;;8.50;7.82;;;;;;;19.59;100.00;64025.97;5087229;28;20226;-74
2023/06/18 11:00:34;;;;;;;8.98;8.18;;;;;;;19.74;100.00;64039.56;5087286;28;20238;-74
2023/06/18 11:03:05;;;;;;;8.48;7.63;;;;;;;19.97;100.00;64060.41;5086696;28;20185;-75
2023/06/18 11:05:55;;;;;;;8.23;7.47;;;;;;;19.67;100.00;64029.66;5087497;28;20261;-77
2023/06/18 11:08:27;;;;;;;10.13;7.53;;;;;;;19.54;100.00;64019.19;5064049;28;20235;-74
2023/06/18 11:11:02;;;;;;;7.53;6.80;;;;;;;20.01;100.00;64070.28;5066263;28;20229;-75
2023/06/18 11:13:33;;;;;;;7.78;7.10;;;;;;;20.21;100.00;64085.47;5069711;28;20237;-76
2023/06/18 11:16:02;;;;;;;7.60;6.60;;;;;;;20.47;100.00;64115.19;5068586;28;20546;-76